sensor_id;sensor_type;location;lat;lon;timestamp;pressure;altitude;pressure_sealevel;temperature;humidity
14089;BME280;7120;52.890;6.040;2022-09-25T00:00:27;101557.38;;;10.81;83.86
14089;BME280;7120;52.890;6.040;2022-09-25T00:02:52;101550.63;;;10.68;83.90
14089;BME280;7120;52.890;6.040;2022-09-25T00:05:17;101560.25;;;10.60;83.54
14089;BME280;7120;52.890;6.040;2022-09-25T00:07:43;101549.31;;;10.60;84.02
14089;BME280;7120;52.890;6.040;2022-09-25T00:10:08;101563.22;;;10.64;84.17
14089;BME280;7120;52.890;6.040;2022-09-25T00:12:34;101552.09;;;10.55;84.42
14089;BME280;7120;52.890;6.040;2022-09-25T00:15:00;101542.81;;;10.51;83.95
14089;BME280;7120;52.890;6.040;2022-09-25T00:17:26;101557.84;;;10.54;84.03
14089;BME280;7120;52.890;6.040;2022-09-25T00:19:51;101559.50;;;10.50;84.09
14089;BME280;7120;52.890;6.040;2022-09-25T00:22:18;101564.41;;;10.53;85.52
14089;BME280;7120;52.890;6.040;2022-09-25T00:24:44;101564.41;;;10.53;85.23
14089;BME280;7120;52.890;6.040;2022-09-25T00:27:10;101567.63;;;10.65;86.04
14089;BME280;7120;52.890;6.040;2022-09-25T00:29:36;101568.19;;;10.62;85.22
14089;BME280;7120;52.890;6.040;2022-09-25T00:32:04;101567.56;;;10.70;86.06
14089;BME280;7120;52.890;6.040;2022-09-25T00:34:29;101559.16;;;10.61;85.45
14089;BME280;7120;52.890;6.040;2022-09-25T00:36:55;101549.91;;;10.57;85.08
14089;BME280;7120;52.890;6.040;2022-09-25T00:39:20;101568.19;;;10.62;84.33
14089;BME280;7120;52.890;6.040;2022-09-25T00:41:46;101560.56;;;10.59;83.95
14089;BME280;7120;52.890;6.040;2022-09-25T00:47:05;101568.28;;;10.47;84.28
14089;BME280;7120;52.890;6.040;2022-09-25T00:49:30;101563.13;;;10.40;83.75
14089;BME280;7120;52.890;6.040;2022-09-25T00:52:02;101568.09;;;10.33;84.51
14089;BME280;7120;52.890;6.040;2022-09-25T00:54:34;101573.84;;;10.31;85.17
14089;BME280;7120;52.890;6.040;2022-09-25T00:57:05;101570.00;;;10.32;85.29
14089;BME280;7120;52.890;6.040;2022-09-25T00:59:37;101573.81;;;10.36;85.36
14089;BME280;7120;52.890;6.040;2022-09-25T01:02:05;101562.03;;;10.36;85.11
14089;BME280;7120;52.890;6.040;2022-09-25T01:04:34;101568.06;;;10.38;85.38
14089;BME280;7120;52.890;6.040;2022-09-25T01:07:01;101574.66;;;10.37;84.84
14089;BME280;7120;52.890;6.040;2022-09-25T01:09:27;101571.13;;;10.26;85.03
14089;BME280;7120;52.890;6.040;2022-09-25T01:11:54;101571.66;;;10.28;84.76
14089;BME280;7120;52.890;6.040;2022-09-25T01:14:19;101572.22;;;10.30;84.86
14089;BME280;7120;52.890;6.040;2022-09-25T01:16:52;101562.94;;;10.26;84.38
14089;BME280;7120;52.890;6.040;2022-09-25T01:19:31;101559.38;;;10.21;84.52
14089;BME280;7120;52.890;6.040;2022-09-25T01:25:05;101557.28;;;10.02;84.98
14089;BME280;7120;52.890;6.040;2022-09-25T01:30:21;101551.28;;;10.00;85.46
14089;BME280;7120;52.890;6.040;2022-09-25T01:32:55;101556.75;;;10.00;85.61
14089;BME280;7120;52.890;6.040;2022-09-25T01:38:28;101554.53;;;10.07;84.66
14089;BME280;7120;52.890;6.040;2022-09-25T01:43:49;101563.50;;;10.23;87.12
14089;BME280;7120;52.890;6.040;2022-09-25T01:46:19;101563.75;;;10.27;88.61
14089;BME280;7120;52.890;6.040;2022-09-25T01:48:49;101564.06;;;10.15;88.92
14089;BME280;7120;52.890;6.040;2022-09-25T01:51:20;101553.66;;;10.17;86.82
14089;BME280;7120;52.890;6.040;2022-09-25T01:53:54;101553.66;;;10.22;85.97
14089;BME280;7120;52.890;6.040;2022-09-25T01:56:27;101560.47;;;10.19;85.38
14089;BME280;7120;52.890;6.040;2022-09-25T02:01:36;101559.38;;;10.21;85.50
14089;BME280;7120;52.890;6.040;2022-09-25T02:04:14;101549.25;;;10.21;85.88
14089;BME280;7120;52.890;6.040;2022-09-25T02:06:44;101550.06;;;10.22;85.79
14089;BME280;7120;52.890;6.040;2022-09-25T02:09:21;101545.63;;;10.41;87.21
14089;BME280;7120;52.890;6.040;2022-09-25T02:11:51;101540.75;;;10.33;87.56
14089;BME280;7120;52.890;6.040;2022-09-25T02:14:27;101554.09;;;10.44;87.24
14089;BME280;7120;52.890;6.040;2022-09-25T02:16:57;101546.06;;;10.58;87.78
14089;BME280;7120;52.890;6.040;2022-09-25T02:19:23;101548.97;;;10.72;88.48
14089;BME280;7120;52.890;6.040;2022-09-25T02:22:15;101544.34;;;10.67;89.10
14089;BME280;7120;52.890;6.040;2022-09-25T02:27:15;101541.13;;;10.94;88.91
14089;BME280;7120;52.890;6.040;2022-09-25T02:29:44;101540.22;;;10.99;88.21
14089;BME280;7120;52.890;6.040;2022-09-25T02:32:14;101541.41;;;10.93;87.50
14089;BME280;7120;52.890;6.040;2022-09-25T02:34:41;101543.53;;;11.01;86.78
14089;BME280;7120;52.890;6.040;2022-09-25T02:37:11;101536.94;;;11.02;86.05
14089;BME280;7120;52.890;6.040;2022-09-25T02:39:37;101555.94;;;11.17;86.49
14089;BME280;7120;52.890;6.040;2022-09-25T02:45:44;101567.25;;;10.77;91.90
14089;BME280;7120;52.890;6.040;2022-09-25T02:48:21;101546.41;;;10.86;90.98
14089;BME280;7120;52.890;6.040;2022-09-25T02:56:36;101554.34;;;11.40;89.64
14089;BME280;7120;52.890;6.040;2022-09-25T02:59:08;101539.53;;;11.41;89.50
14089;BME280;7120;52.890;6.040;2022-09-25T03:01:37;101540.72;;;11.35;87.42
14089;BME280;7120;52.890;6.040;2022-09-25T03:04:06;101545.78;;;11.23;86.56
14089;BME280;7120;52.890;6.040;2022-09-25T03:06:32;101538.72;;;11.17;86.20
14089;BME280;7120;52.890;6.040;2022-09-25T03:08:59;101545.16;;;11.02;85.53
14089;BME280;7120;52.890;6.040;2022-09-25T03:11:25;101543.88;;;10.89;85.83
14089;BME280;7120;52.890;6.040;2022-09-25T03:13:59;101541.28;;;10.74;85.41
14089;BME280;7120;52.890;6.040;2022-09-25T03:16:36;101546.28;;;10.62;85.40
14089;BME280;7120;52.890;6.040;2022-09-25T03:19:06;101542.84;;;10.46;85.89
14089;BME280;7120;52.890;6.040;2022-09-25T03:21:31;101548.56;;;10.50;85.30
14089;BME280;7120;52.890;6.040;2022-09-25T03:23:58;101553.59;;;10.37;85.69
14089;BME280;7120;52.890;6.040;2022-09-25T03:26:25;101550.59;;;10.34;85.71
14089;BME280;7120;52.890;6.040;2022-09-25T03:28:51;101553.31;;;10.34;86.30
14089;BME280;7120;52.890;6.040;2022-09-25T03:31:17;101548.44;;;10.26;88.76
14089;BME280;7120;52.890;6.040;2022-09-25T03:33:43;101558.25;;;10.32;88.17
14089;BME280;7120;52.890;6.040;2022-09-25T03:36:19;101555.75;;;10.40;87.89
14089;BME280;7120;52.890;6.040;2022-09-25T03:38:46;101550.03;;;10.37;87.53
14089;BME280;7120;52.890;6.040;2022-09-25T03:41:14;101557.34;;;10.47;88.54
14089;BME280;7120;52.890;6.040;2022-09-25T03:43:42;101548.84;;;10.48;88.93
14089;BME280;7120;52.890;6.040;2022-09-25T03:46:12;101552.22;;;10.35;90.24
14089;BME280;7120;52.890;6.040;2022-09-25T03:48:38;101551.75;;;10.17;90.04
14089;BME280;7120;52.890;6.040;2022-09-25T03:51:04;101549.53;;;10.19;90.25
14089;BME280;7120;52.890;6.040;2022-09-25T03:53:31;101567.88;;;10.19;91.39
14089;BME280;7120;52.890;6.040;2022-09-25T03:55:58;101558.00;;;10.28;91.07
14089;BME280;7120;52.890;6.040;2022-09-25T03:58:24;101565.84;;;10.40;91.14
14089;BME280;7120;52.890;6.040;2022-09-25T04:00:49;101559.25;;;10.46;91.13
14089;BME280;7120;52.890;6.040;2022-09-25T04:03:15;101567.94;;;10.58;90.31
14089;BME280;7120;52.890;6.040;2022-09-25T04:05:41;101565.94;;;10.69;89.99
14089;BME280;7120;52.890;6.040;2022-09-25T04:08:08;101564.81;;;10.75;90.18
14089;BME280;7120;52.890;6.040;2022-09-25T04:10:33;101561.47;;;10.78;89.22
14089;BME280;7120;52.890;6.040;2022-09-25T04:13:04;101547.25;;;10.81;89.98
14089;BME280;7120;52.890;6.040;2022-09-25T04:15:29;101559.66;;;11.03;89.49
14089;BME280;7120;52.890;6.040;2022-09-25T04:17:56;101541.56;;;11.07;89.01
14089;BME280;7120;52.890;6.040;2022-09-25T04:20:22;101543.81;;;10.99;89.00
14089;BME280;7120;52.890;6.040;2022-09-25T04:22:48;101524.53;;;10.81;88.93
14089;BME280;7120;52.890;6.040;2022-09-25T04:25:13;101525.47;;;11.00;88.98
14089;BME280;7120;52.890;6.040;2022-09-25T04:27:38;101502.53;;;11.20;88.47
14089;BME280;7120;52.890;6.040;2022-09-25T04:30:05;101506.13;;;11.44;88.28
14089;BME280;7120;52.890;6.040;2022-09-25T04:32:31;101479.53;;;11.45;87.68
14089;BME280;7120;52.890;6.040;2022-09-25T04:35:15;101496.66;;;11.55;88.47
14089;BME280;7120;52.890;6.040;2022-09-25T04:37:40;101494.00;;;11.50;85.84
14089;BME280;7120;52.890;6.040;2022-09-25T04:40:06;101517.03;;;11.49;86.32
14089;BME280;7120;52.890;6.040;2022-09-25T04:42:32;101506.63;;;11.46;86.88
14089;BME280;7120;52.890;6.040;2022-09-25T04:44:57;101514.97;;;11.36;86.97
14089;BME280;7120;52.890;6.040;2022-09-25T04:47:26;101505.31;;;11.44;88.12
14089;BME280;7120;52.890;6.040;2022-09-25T04:49:55;101514.63;;;11.43;87.47
14089;BME280;7120;52.890;6.040;2022-09-25T04:52:20;101507.22;;;11.43;87.39
14089;BME280;7120;52.890;6.040;2022-09-25T04:54:46;101515.16;;;11.45;87.15
14089;BME280;7120;52.890;6.040;2022-09-25T04:57:19;101509.66;;;11.45;87.62
14089;BME280;7120;52.890;6.040;2022-09-25T04:59:45;101515.66;;;11.47;87.40
14089;BME280;7120;52.890;6.040;2022-09-25T05:02:12;101508.22;;;11.28;87.69
14089;BME280;7120;52.890;6.040;2022-09-25T05:04:38;101513.56;;;11.39;86.44
14089;BME280;7120;52.890;6.040;2022-09-25T05:07:04;101501.56;;;11.35;86.35
14089;BME280;7120;52.890;6.040;2022-09-25T05:09:30;101512.53;;;11.35;85.67
14089;BME280;7120;52.890;6.040;2022-09-25T05:11:55;101519.25;;;11.18;87.40
14089;BME280;7120;52.890;6.040;2022-09-25T05:14:21;101522.38;;;11.36;87.62
14089;BME280;7120;52.890;6.040;2022-09-25T05:16:47;101516.50;;;10.94;87.90
14089;BME280;7120;52.890;6.040;2022-09-25T05:19:13;101528.06;;;10.52;91.21
14089;BME280;7120;52.890;6.040;2022-09-25T05:21:39;101530.50;;;10.88;90.76
14089;BME280;7120;52.890;6.040;2022-09-25T05:24:05;101527.81;;;11.12;90.38
14089;BME280;7120;52.890;6.040;2022-09-25T05:26:33;101529.88;;;10.96;89.89
14089;BME280;7120;52.890;6.040;2022-09-25T05:28:59;101533.47;;;10.91;90.27
14089;BME280;7120;52.890;6.040;2022-09-25T05:31:24;101536.66;;;11.04;90.41
14089;BME280;7120;52.890;6.040;2022-09-25T05:33:50;101533.56;;;11.10;89.79
14089;BME280;7120;52.890;6.040;2022-09-25T05:36:15;101536.66;;;11.04;90.42
14089;BME280;7120;52.890;6.040;2022-09-25T05:38:42;101543.53;;;11.01;91.34
14089;BME280;7120;52.890;6.040;2022-09-25T05:41:09;101550.59;;;11.07;92.37
14089;BME280;7120;52.890;6.040;2022-09-25T05:43:43;101543.84;;;11.23;92.15
14089;BME280;7120;52.890;6.040;2022-09-25T05:46:10;101550.22;;;11.43;92.31
14089;BME280;7120;52.890;6.040;2022-09-25T05:48:36;101535.84;;;11.56;91.48
14089;BME280;7120;52.890;6.040;2022-09-25T05:51:02;101516.63;;;11.85;91.16
14089;BME280;7120;52.890;6.040;2022-09-25T05:53:28;101531.94;;;12.05;89.93
14089;BME280;7120;52.890;6.040;2022-09-25T05:55:58;101531.38;;;12.08;88.88
14089;BME280;7120;52.890;6.040;2022-09-25T05:58:25;101516.78;;;12.13;89.07
14089;BME280;7120;52.890;6.040;2022-09-25T06:00:50;101517.16;;;12.25;88.91
14089;BME280;7120;52.890;6.040;2022-09-25T06:03:16;101537.47;;;12.43;88.55
14089;BME280;7120;52.890;6.040;2022-09-25T06:05:42;101528.06;;;12.49;88.26
14089;BME280;7120;52.890;6.040;2022-09-25T06:08:10;101522.31;;;12.64;87.78
14089;BME280;7120;52.890;6.040;2022-09-25T06:10:35;101532.91;;;12.71;87.90
14089;BME280;7120;52.890;6.040;2022-09-25T06:13:02;101534.47;;;12.77;87.54
14089;BME280;7120;52.890;6.040;2022-09-25T06:15:33;101535.34;;;12.72;86.88
14089;BME280;7120;52.890;6.040;2022-09-25T06:18:04;101537.47;;;12.61;86.67
14089;BME280;7120;52.890;6.040;2022-09-25T06:20:30;101536.84;;;12.64;86.70
14089;BME280;7120;52.890;6.040;2022-09-25T06:22:57;101537.16;;;12.44;87.74
14089;BME280;7120;52.890;6.040;2022-09-25T06:25:24;101526.50;;;12.24;88.68
14089;BME280;7120;52.890;6.040;2022-09-25T06:27:54;101537.66;;;12.46;88.87
14089;BME280;7120;52.890;6.040;2022-09-25T06:30:23;101525.81;;;12.70;87.94
14089;BME280;7120;52.890;6.040;2022-09-25T06:32:58;101526.84;;;12.87;87.76
14089;BME280;7120;52.890;6.040;2022-09-25T06:35:24;101521.41;;;13.01;87.35
14089;BME280;7120;52.890;6.040;2022-09-25T06:37:50;101519.91;;;13.09;86.65
14089;BME280;7120;52.890;6.040;2022-09-25T06:40:15;101513.69;;;13.17;87.44
14089;BME280;7120;52.890;6.040;2022-09-25T06:42:40;101517.88;;;13.14;86.95
14089;BME280;7120;52.890;6.040;2022-09-25T06:45:06;101512.44;;;13.28;86.66
14089;BME280;7120;52.890;6.040;2022-09-25T06:47:33;101521.81;;;13.41;86.74
14089;BME280;7120;52.890;6.040;2022-09-25T06:49:58;101525.78;;;13.49;85.83
14089;BME280;7120;52.890;6.040;2022-09-25T06:52:25;101518.44;;;13.58;83.98
14089;BME280;7120;52.890;6.040;2022-09-25T06:54:50;101532.41;;;13.61;83.92
14089;BME280;7120;52.890;6.040;2022-09-25T06:57:15;101526.50;;;13.54;83.60
14089;BME280;7120;52.890;6.040;2022-09-25T06:59:41;101532.91;;;13.63;84.23
14089;BME280;7120;52.890;6.040;2022-09-25T07:02:07;101523.94;;;13.58;83.96
14089;BME280;7120;52.890;6.040;2022-09-25T07:04:51;101519.88;;;13.55;83.97
14089;BME280;7120;52.890;6.040;2022-09-25T07:07:18;101522.63;;;13.55;83.50
14089;BME280;7120;52.890;6.040;2022-09-25T07:09:48;101523.53;;;13.37;84.12
14089;BME280;7120;52.890;6.040;2022-09-25T07:12:14;101523.69;;;13.13;83.75
14089;BME280;7120;52.890;6.040;2022-09-25T07:14:39;101516.56;;;13.12;84.03
14089;BME280;7120;52.890;6.040;2022-09-25T07:17:08;101521.78;;;12.95;84.53
14089;BME280;7120;52.890;6.040;2022-09-25T07:19:33;101520.91;;;12.99;84.23
14089;BME280;7120;52.890;6.040;2022-09-25T07:21:58;101525.19;;;13.05;84.18
14089;BME280;7120;52.890;6.040;2022-09-25T07:24:23;101521.50;;;12.96;84.98
14089;BME280;7120;52.890;6.040;2022-09-25T07:26:50;101522.22;;;13.02;85.00
14089;BME280;7120;52.890;6.040;2022-09-25T07:29:16;101524.47;;;13.00;85.13
14089;BME280;7120;52.890;6.040;2022-09-25T07:31:42;101531.09;;;13.12;85.12
14089;BME280;7120;52.890;6.040;2022-09-25T07:34:07;101537.16;;;13.28;85.29
14089;BME280;7120;52.890;6.040;2022-09-25T07:36:34;101522.72;;;13.36;84.88
14089;BME280;7120;52.890;6.040;2022-09-25T07:39:00;101525.97;;;13.52;83.91
14089;BME280;7120;52.890;6.040;2022-09-25T07:41:25;101530.25;;;13.44;83.77
14089;BME280;7120;52.890;6.040;2022-09-25T07:43:52;101533.13;;;13.53;84.27
14089;BME280;7120;52.890;6.040;2022-09-25T07:46:21;101526.09;;;13.61;84.53
14089;BME280;7120;52.890;6.040;2022-09-25T07:48:48;101533.72;;;13.78;84.57
14089;BME280;7120;52.890;6.040;2022-09-25T07:51:14;101542.44;;;13.93;84.17
14089;BME280;7120;52.890;6.040;2022-09-25T07:53:40;101533.28;;;13.98;83.78
14089;BME280;7120;52.890;6.040;2022-09-25T07:56:08;101527.06;;;14.06;83.54
14089;BME280;7120;52.890;6.040;2022-09-25T07:58:34;101531.50;;;14.16;83.95
14089;BME280;7120;52.890;6.040;2022-09-25T08:01:00;101533.25;;;14.25;83.36
14089;BME280;7120;52.890;6.040;2022-09-25T08:03:27;101527.78;;;14.48;82.26
14089;BME280;7120;52.890;6.040;2022-09-25T08:06:19;101536.25;;;14.74;83.16
14089;BME280;7120;52.890;6.040;2022-09-25T08:08:44;101534.19;;;15.02;82.91
14089;BME280;7120;52.890;6.040;2022-09-25T08:11:15;101538.63;;;15.20;78.34
14089;BME280;7120;52.890;6.040;2022-09-25T08:13:41;101534.03;;;15.38;76.40
14089;BME280;7120;52.890;6.040;2022-09-25T08:16:10;101528.91;;;15.54;75.71
14089;BME280;7120;52.890;6.040;2022-09-25T08:18:37;101533.94;;;16.00;77.61
14089;BME280;7120;52.890;6.040;2022-09-25T08:21:03;101532.19;;;16.30;74.30
14089;BME280;7120;52.890;6.040;2022-09-25T08:23:30;101537.56;;;16.44;73.59
14089;BME280;7120;52.890;6.040;2022-09-25T08:25:56;101540.66;;;16.51;70.69
14089;BME280;7120;52.890;6.040;2022-09-25T08:28:22;101542.59;;;16.68;76.06
14089;BME280;7120;52.890;6.040;2022-09-25T08:30:48;101537.03;;;17.02;75.33
14089;BME280;7120;52.890;6.040;2022-09-25T08:33:13;101530.44;;;17.42;73.62
14089;BME280;7120;52.890;6.040;2022-09-25T08:35:39;101537.81;;;17.97;73.16
14089;BME280;7120;52.890;6.040;2022-09-25T08:38:06;101539.78;;;18.17;71.72
14089;BME280;7120;52.890;6.040;2022-09-25T08:40:33;101544.06;;;18.35;70.09
14089;BME280;7120;52.890;6.040;2022-09-25T08:43:02;101541.38;;;18.48;69.54
14089;BME280;7120;52.890;6.040;2022-09-25T08:45:34;101539.41;;;18.69;69.25
14089;BME280;7120;52.890;6.040;2022-09-25T08:48:25;101532.53;;;18.87;68.90
14089;BME280;7120;52.890;6.040;2022-09-25T08:51:11;101536.00;;;18.84;67.54
14089;BME280;7120;52.890;6.040;2022-09-25T08:53:38;101542.56;;;18.38;66.82
14089;BME280;7120;52.890;6.040;2022-09-25T08:56:04;101542.41;;;18.97;64.75
14089;BME280;7120;52.890;6.040;2022-09-25T08:58:41;101537.94;;;19.05;64.14
14089;BME280;7120;52.890;6.040;2022-09-25T09:01:23;101536.06;;;19.09;62.55
14089;BME280;7120;52.890;6.040;2022-09-25T09:04:02;101542.03;;;19.56;64.80
14089;BME280;7120;52.890;6.040;2022-09-25T09:06:30;101546.00;;;19.80;60.48
14089;BME280;7120;52.890;6.040;2022-09-25T09:09:13;101538.28;;;19.15;60.63
14089;BME280;7120;52.890;6.040;2022-09-25T09:14:14;101540.97;;;19.36;58.89
14089;BME280;7120;52.890;6.040;2022-09-25T09:16:45;101535.00;;;19.46;58.71
14089;BME280;7120;52.890;6.040;2022-09-25T09:19:12;101536.72;;;19.51;63.20
14089;BME280;7120;52.890;6.040;2022-09-25T09:21:42;101534.00;;;19.75;60.88
14089;BME280;7120;52.890;6.040;2022-09-25T09:27:24;101526.03;;;19.74;53.82
14089;BME280;7120;52.890;6.040;2022-09-25T09:35:33;101516.16;;;20.81;52.44
14089;BME280;7120;52.890;6.040;2022-09-25T09:51:40;101531.72;;;14.78;77.15
14089;BME280;7120;52.890;6.040;2022-09-25T09:57:26;101528.47;;;14.17;81.53
14089;BME280;7120;52.890;6.040;2022-09-25T10:02:26;101521.56;;;14.42;81.55
14089;BME280;7120;52.890;6.040;2022-09-25T10:04:54;101528.13;;;14.69;80.25
14089;BME280;7120;52.890;6.040;2022-09-25T10:07:21;101509.06;;;14.59;80.95
14089;BME280;7120;52.890;6.040;2022-09-25T10:09:48;101517.34;;;14.81;80.61
14089;BME280;7120;52.890;6.040;2022-09-25T10:12:22;101515.50;;;14.99;82.20
14089;BME280;7120;52.890;6.040;2022-09-25T10:14:51;101519.59;;;15.01;82.33
14089;BME280;7120;52.890;6.040;2022-09-25T10:17:18;101526.34;;;15.26;83.12
14089;BME280;7120;52.890;6.040;2022-09-25T10:19:56;101507.75;;;15.72;81.93
14089;BME280;7120;52.890;6.040;2022-09-25T10:22:31;101512.06;;;16.64;80.59
14089;BME280;7120;52.890;6.040;2022-09-25T10:25:01;101520.97;;;17.43;73.79
14089;BME280;7120;52.890;6.040;2022-09-25T10:27:35;101524.06;;;18.09;73.44
14089;BME280;7120;52.890;6.040;2022-09-25T10:35:25;101508.75;;;19.44;65.68
14089;BME280;7120;52.890;6.040;2022-09-25T10:37:53;101505.25;;;20.08;66.98
14089;BME280;7120;52.890;6.040;2022-09-25T10:40:38;101494.81;;;20.57;64.28
14089;BME280;7120;52.890;6.040;2022-09-25T10:45:36;101513.41;;;21.13;59.56
14089;BME280;7120;52.890;6.040;2022-09-25T10:48:27;101514.53;;;19.39;57.31
14089;BME280;7120;52.890;6.040;2022-09-25T10:51:12;101500.97;;;18.26;60.57
14089;BME280;7120;52.890;6.040;2022-09-25T10:56:33;101504.72;;;17.41;66.30
14089;BME280;7120;52.890;6.040;2022-09-25T10:59:02;101497.19;;;17.03;67.77
14089;BME280;7120;52.890;6.040;2022-09-25T11:01:35;101494.50;;;16.86;67.74
14089;BME280;7120;52.890;6.040;2022-09-25T11:04:29;101507.19;;;16.70;69.97
14089;BME280;7120;52.890;6.040;2022-09-25T11:06:58;101497.13;;;16.74;69.43
14089;BME280;7120;52.890;6.040;2022-09-25T11:09:27;101491.09;;;16.55;70.16
14089;BME280;7120;52.890;6.040;2022-09-25T11:14:33;101480.88;;;16.64;71.38
14089;BME280;7120;52.890;6.040;2022-09-25T11:17:01;101480.88;;;16.72;70.06
14089;BME280;7120;52.890;6.040;2022-09-25T11:19:33;101475.28;;;16.90;70.27
14089;BME280;7120;52.890;6.040;2022-09-25T11:22:25;101473.69;;;17.36;70.53
14089;BME280;7120;52.890;6.040;2022-09-25T11:25:11;101482.66;;;17.62;68.60
14089;BME280;7120;52.890;6.040;2022-09-25T11:27:46;101470.09;;;17.65;67.71
14089;BME280;7120;52.890;6.040;2022-09-25T11:30:17;101461.59;;;17.78;68.42
14089;BME280;7120;52.890;6.040;2022-09-25T11:33:05;101465.19;;;17.70;68.02
14089;BME280;7120;52.890;6.040;2022-09-25T11:41:46;101473.56;;;17.91;67.12
14089;BME280;7120;52.890;6.040;2022-09-25T11:44:28;101469.84;;;18.08;66.56
14089;BME280;7120;52.890;6.040;2022-09-25T11:47:17;101467.59;;;18.22;65.21
14089;BME280;7120;52.890;6.040;2022-09-25T11:49:48;101462.63;;;18.16;66.55
14089;BME280;7120;52.890;6.040;2022-09-25T12:11:36;101462.50;;;16.77;67.12
14089;BME280;7120;52.890;6.040;2022-09-25T12:17:12;101450.38;;;17.07;65.73
14089;BME280;7120;52.890;6.040;2022-09-25T12:28:00;101437.59;;;18.45;59.13
14089;BME280;7120;52.890;6.040;2022-09-25T12:30:36;101435.13;;;19.34;54.80
14089;BME280;7120;52.890;6.040;2022-09-25T12:33:24;101432.81;;;19.24;56.78
14089;BME280;7120;52.890;6.040;2022-09-25T12:38:42;101423.34;;;19.13;57.65
14089;BME280;7120;52.890;6.040;2022-09-25T12:41:27;101421.16;;;18.61;55.31
14089;BME280;7120;52.890;6.040;2022-09-25T12:44:17;101423.03;;;18.15;56.58
14089;BME280;7120;52.890;6.040;2022-09-25T12:46:59;101415.28;;;18.08;57.28
14089;BME280;7120;52.890;6.040;2022-09-25T12:49:39;101410.84;;;17.95;57.83
14089;BME280;7120;52.890;6.040;2022-09-25T12:52:38;101396.34;;;17.77;59.57
14089;BME280;7120;52.890;6.040;2022-09-25T12:55:11;101407.25;;;17.44;61.47
14089;BME280;7120;52.890;6.040;2022-09-25T13:00:37;101400.22;;;17.55;64.27
14089;BME280;7120;52.890;6.040;2022-09-25T13:06:15;101400.31;;;19.37;58.51
14089;BME280;7120;52.890;6.040;2022-09-25T13:08:51;101397.41;;;20.10;57.07
14089;BME280;7120;52.890;6.040;2022-09-25T13:11:30;101388.78;;;21.19;56.98
14089;BME280;7120;52.890;6.040;2022-09-25T13:13:58;101394.50;;;21.77;47.19
14089;BME280;7120;52.890;6.040;2022-09-25T13:16:25;101388.63;;;20.80;51.19
14089;BME280;7120;52.890;6.040;2022-09-25T13:19:22;101383.13;;;21.15;50.27
14089;BME280;7120;52.890;6.040;2022-09-25T13:21:49;101377.03;;;20.34;51.86
14089;BME280;7120;52.890;6.040;2022-09-25T13:24:17;101382.22;;;20.64;47.35
14089;BME280;7120;52.890;6.040;2022-09-25T13:26:49;101380.19;;;21.08;45.36
14089;BME280;7120;52.890;6.040;2022-09-25T13:29:33;101378.84;;;20.42;50.28
14089;BME280;7120;52.890;6.040;2022-09-25T13:32:26;101367.28;;;20.40;56.18
14089;BME280;7120;52.890;6.040;2022-09-25T13:35:11;101377.41;;;20.61;49.89
14089;BME280;7120;52.890;6.040;2022-09-25T13:37:40;101371.91;;;20.64;45.86
14089;BME280;7120;52.890;6.040;2022-09-25T13:40:17;101366.59;;;20.15;46.50
14089;BME280;7120;52.890;6.040;2022-09-25T13:45:45;101350.91;;;20.07;48.23
14089;BME280;7120;52.890;6.040;2022-09-25T13:48:32;101360.56;;;19.97;48.21
14089;BME280;7120;52.890;6.040;2022-09-25T13:56:15;101361.06;;;18.41;51.06
14089;BME280;7120;52.890;6.040;2022-09-25T14:01:56;101351.69;;;18.78;51.57
14089;BME280;7120;52.890;6.040;2022-09-25T14:04:29;101354.28;;;18.05;49.08
14089;BME280;7120;52.890;6.040;2022-09-25T14:07:03;101352.97;;;18.35;47.16
14089;BME280;7120;52.890;6.040;2022-09-25T14:09:30;101339.94;;;18.03;50.85
14089;BME280;7120;52.890;6.040;2022-09-25T14:12:05;101354.47;;;18.00;53.77
14089;BME280;7120;52.890;6.040;2022-09-25T14:17:14;101337.38;;;18.31;49.70
14089;BME280;7120;52.890;6.040;2022-09-25T14:19:43;101334.34;;;18.24;48.11
14089;BME280;7120;52.890;6.040;2022-09-25T14:22:40;101328.31;;;18.43;48.80
14089;BME280;7120;52.890;6.040;2022-09-25T14:25:36;101322.63;;;18.27;51.84
14089;BME280;7120;52.890;6.040;2022-09-25T14:28:21;101323.84;;;18.17;51.50
14089;BME280;7120;52.890;6.040;2022-09-25T14:30:57;101323.44;;;17.94;52.17
14089;BME280;7120;52.890;6.040;2022-09-25T14:36:08;101323.22;;;17.57;53.51
14089;BME280;7120;52.890;6.040;2022-09-25T14:38:50;101321.00;;;17.51;53.25
14089;BME280;7120;52.890;6.040;2022-09-25T14:41:43;101314.41;;;17.43;53.54
14089;BME280;7120;52.890;6.040;2022-09-25T14:47:09;101319.47;;;17.41;53.36
14089;BME280;7120;52.890;6.040;2022-09-25T14:49:42;101318.66;;;17.41;52.79
14089;BME280;7120;52.890;6.040;2022-09-25T14:52:15;101307.69;;;17.23;53.24
14089;BME280;7120;52.890;6.040;2022-09-25T14:54:45;101307.97;;;17.30;52.86
14089;BME280;7120;52.890;6.040;2022-09-25T14:57:15;101302.50;;;17.22;52.26
14089;BME280;7120;52.890;6.040;2022-09-25T14:59:45;101310.41;;;17.32;52.96
14089;BME280;7120;52.890;6.040;2022-09-25T15:02:24;101301.03;;;17.24;53.42
14089;BME280;7120;52.890;6.040;2022-09-25T15:04:56;101294.59;;;17.12;57.61
14089;BME280;7120;52.890;6.040;2022-09-25T15:07:25;101298.81;;;17.39;57.42
14089;BME280;7120;52.890;6.040;2022-09-25T15:09:52;101297.19;;;17.58;56.40
14089;BME280;7120;52.890;6.040;2022-09-25T15:15:00;101302.47;;;17.72;56.89
14089;BME280;7120;52.890;6.040;2022-09-25T15:17:28;101292.38;;;17.89;57.04
14089;BME280;7120;52.890;6.040;2022-09-25T15:19:55;101291.84;;;17.95;57.28
14089;BME280;7120;52.890;6.040;2022-09-25T15:22:26;101294.94;;;17.94;58.10
14089;BME280;7120;52.890;6.040;2022-09-25T15:24:55;101293.06;;;17.86;57.78
14089;BME280;7120;52.890;6.040;2022-09-25T15:27:23;101288.75;;;17.76;58.99
14089;BME280;7120;52.890;6.040;2022-09-25T15:29:51;101289.16;;;17.45;57.19
14089;BME280;7120;52.890;6.040;2022-09-25T15:32:25;101287.66;;;17.26;58.43
14089;BME280;7120;52.890;6.040;2022-09-25T15:37:35;101286.78;;;16.93;57.04
14089;BME280;7120;52.890;6.040;2022-09-25T15:42:45;101283.28;;;16.75;56.55